sensor_id;sensor_type;location;lat;lon;timestamp;temperature;humidity
9385;DHT22;4732;49.340;10.886;2023-04-25T03:00:26;7.60;99.90
9385;DHT22;4732;49.340;10.886;2023-04-25T03:02:52;7.60;99.90
9385;DHT22;4732;49.340;10.886;2023-04-25T03:05:17;7.60;99.90
9385;DHT22;4732;49.340;10.886;2023-04-25T03:07:43;7.60;99.90
9385;DHT22;4732;49.340;10.886;2023-04-25T03:10:10;7.60;99.90
9385;DHT22;4732;49.340;10.886;2023-04-25T03:12:36;7.60;99.90
9385;DHT22;4732;49.340;10.886;2023-04-25T03:15:02;7.60;99.90
9385;DHT22;4732;49.340;10.886;2023-04-25T03:17:28;7.50;99.90
9385;DHT22;4732;49.340;10.886;2023-04-25T03:19:55;7.50;99.90
9385;DHT22;4732;49.340;10.886;2023-04-25T03:22:21;7.50;99.90
9385;DHT22;4732;49.340;10.886;2023-04-25T03:24:46;7.50;99.90
9385;DHT22;4732;49.340;10.886;2023-04-25T03:27:12;7.50;99.90
9385;DHT22;4732;49.340;10.886;2023-04-25T03:29:38;6.90;99.90
9385;DHT22;4732;49.340;10.886;2023-04-25T03:32:03;7.50;99.90
9385;DHT22;4732;49.340;10.886;2023-04-25T03:34:29;7.50;99.90
9385;DHT22;4732;49.340;10.886;2023-04-25T03:36:55;7.50;99.90
9385;DHT22;4732;49.340;10.886;2023-04-25T03:39:20;7.50;99.90
9385;DHT22;4732;49.340;10.886;2023-04-25T03:41:46;7.50;99.90
9385;DHT22;4732;49.340;10.886;2023-04-25T03:44:11;7.40;99.90
9385;DHT22;4732;49.340;10.886;2023-04-25T03:46:37;7.40;99.90
9385;DHT22;4732;49.340;10.886;2023-04-25T03:49:02;7.40;99.90
9385;DHT22;4732;49.340;10.886;2023-04-25T03:51:28;7.60;99.90
9385;DHT22;4732;49.340;10.886;2023-04-25T03:53:53;7.40;99.90
9385;DHT22;4732;49.340;10.886;2023-04-25T03:56:19;7.40;99.90
9385;DHT22;4732;49.340;10.886;2023-04-25T03:58:45;7.40;99.90
9385;DHT22;4732;49.340;10.886;2023-04-25T04:01:11;7.40;99.90
9385;DHT22;4732;49.340;10.886;2023-04-25T04:03:36;7.40;99.90
9385;DHT22;4732;49.340;10.886;2023-04-25T04:06:03;7.40;99.90
9385;DHT22;4732;49.340;10.886;2023-04-25T04:08:29;7.40;99.90
9385;DHT22;4732;49.340;10.886;2023-04-25T04:10:55;7.30;99.90
9385;DHT22;4732;49.340;10.886;2023-04-25T04:13:21;7.40;99.90
9385;DHT22;4732;49.340;10.886;2023-04-25T04:15:46;7.30;99.90
9385;DHT22;4732;49.340;10.886;2023-04-25T04:18:12;7.30;99.90
9385;DHT22;4732;49.340;10.886;2023-04-25T04:20:37;7.20;99.90
9385;DHT22;4732;49.340;10.886;2023-04-25T04:23:03;7.20;99.90
9385;DHT22;4732;49.340;10.886;2023-04-25T04:25:28;7.20;99.90
9385;DHT22;4732;49.340;10.886;2023-04-25T04:27:55;7.20;99.90
9385;DHT22;4732;49.340;10.886;2023-04-25T04:30:24;7.20;99.90
9385;DHT22;4732;49.340;10.886;2023-04-25T04:32:51;7.20;99.90
9385;DHT22;4732;49.340;10.886;2023-04-25T04:35:17;7.20;99.90
9385;DHT22;4732;49.340;10.886;2023-04-25T04:37:42;7.20;99.90
9385;DHT22;4732;49.340;10.886;2023-04-25T04:40:09;7.20;99.90
9385;DHT22;4732;49.340;10.886;2023-04-25T04:42:35;7.20;99.90
9385;DHT22;4732;49.340;10.886;2023-04-25T04:45:01;7.20;99.90
9385;DHT22;4732;49.340;10.886;2023-04-25T04:47:28;7.20;99.90
9385;DHT22;4732;49.340;10.886;2023-04-25T04:49:56;7.30;99.90
9385;DHT22;4732;49.340;10.886;2023-04-25T04:52:22;7.30;99.90
9385;DHT22;4732;49.340;10.886;2023-04-25T04:54:47;7.30;99.90
9385;DHT22;4732;49.340;10.886;2023-04-25T04:57:13;7.40;99.90
9385;DHT22;4732;49.340;10.886;2023-04-25T04:59:38;7.40;99.90
9385;DHT22;4732;49.340;10.886;2023-04-25T05:02:04;7.40;99.90
9385;DHT22;4732;49.340;10.886;2023-04-25T05:04:29;7.40;99.90
9385;DHT22;4732;49.340;10.886;2023-04-25T05:06:55;7.30;99.90
9385;DHT22;4732;49.340;10.886;2023-04-25T05:09:21;7.40;99.90
9385;DHT22;4732;49.340;10.886;2023-04-25T05:11:51;7.50;99.90
9385;DHT22;4732;49.340;10.886;2023-04-25T05:14:16;7.50;99.90
9385;DHT22;4732;49.340;10.886;2023-04-25T05:16:43;7.60;99.90
9385;DHT22;4732;49.340;10.886;2023-04-25T05:19:08;7.60;99.90
9385;DHT22;4732;49.340;10.886;2023-04-25T05:21:34;7.70;99.90
9385;DHT22;4732;49.340;10.886;2023-04-25T05:24:00;7.60;99.90
9385;DHT22;4732;49.340;10.886;2023-04-25T05:26:25;7.70;99.90
9385;DHT22;4732;49.340;10.886;2023-04-25T05:28:51;7.60;99.90
9385;DHT22;4732;49.340;10.886;2023-04-25T05:31:16;7.70;99.90
9385;DHT22;4732;49.340;10.886;2023-04-25T05:33:42;7.70;99.90
9385;DHT22;4732;49.340;10.886;2023-04-25T05:36:07;7.60;99.90
9385;DHT22;4732;49.340;10.886;2023-04-25T05:38:33;7.70;99.90
9385;DHT22;4732;49.340;10.886;2023-04-25T05:40:59;7.70;99.90
9385;DHT22;4732;49.340;10.886;2023-04-25T05:43:24;7.70;99.90
9385;DHT22;4732;49.340;10.886;2023-04-25T05:45:50;7.70;99.90
9385;DHT22;4732;49.340;10.886;2023-04-25T05:48:15;7.70;99.90
9385;DHT22;4732;49.340;10.886;2023-04-25T05:50:41;7.70;99.90
9385;DHT22;4732;49.340;10.886;2023-04-25T05:53:06;7.80;99.90
9385;DHT22;4732;49.340;10.886;2023-04-25T05:55:32;7.90;99.90
9385;DHT22;4732;49.340;10.886;2023-04-25T05:57:57;7.80;99.90
9385;DHT22;4732;49.340;10.886;2023-04-25T06:00:23;7.80;99.90
9385;DHT22;4732;49.340;10.886;2023-04-25T06:02:49;7.80;99.90
9385;DHT22;4732;49.340;10.886;2023-04-25T06:05:14;7.90;99.90
9385;DHT22;4732;49.340;10.886;2023-04-25T06:07:40;7.80;99.90
9385;DHT22;4732;49.340;10.886;2023-04-25T06:10:06;7.90;99.90
9385;DHT22;4732;49.340;10.886;2023-04-25T06:12:32;7.90;99.90
9385;DHT22;4732;49.340;10.886;2023-04-25T06:14:59;7.90;99.90
9385;DHT22;4732;49.340;10.886;2023-04-25T06:17:24;8.00;99.90
9385;DHT22;4732;49.340;10.886;2023-04-25T06:19:50;8.00;99.90
9385;DHT22;4732;49.340;10.886;2023-04-25T06:22:15;8.00;99.90
9385;DHT22;4732;49.340;10.886;2023-04-25T06:24:41;8.00;99.90
9385;DHT22;4732;49.340;10.886;2023-04-25T06:27:06;7.90;99.90
9385;DHT22;4732;49.340;10.886;2023-04-25T06:29:32;7.90;99.90
9385;DHT22;4732;49.340;10.886;2023-04-25T06:31:57;8.00;99.90
9385;DHT22;4732;49.340;10.886;2023-04-25T06:34:23;8.00;99.90
9385;DHT22;4732;49.340;10.886;2023-04-25T06:36:48;8.00;99.90
9385;DHT22;4732;49.340;10.886;2023-04-25T06:39:14;7.90;99.90
9385;DHT22;4732;49.340;10.886;2023-04-25T06:41:39;7.90;99.90
9385;DHT22;4732;49.340;10.886;2023-04-25T06:44:05;7.80;99.90
9385;DHT22;4732;49.340;10.886;2023-04-25T06:46:31;7.80;99.90
9385;DHT22;4732;49.340;10.886;2023-04-25T06:48:56;7.70;99.90
9385;DHT22;4732;49.340;10.886;2023-04-25T06:51:22;7.80;99.90
9385;DHT22;4732;49.340;10.886;2023-04-25T06:53:49;7.80;99.90
9385;DHT22;4732;49.340;10.886;2023-04-25T06:56:15;7.80;99.90
9385;DHT22;4732;49.340;10.886;2023-04-25T06:58:41;7.90;99.90
9385;DHT22;4732;49.340;10.886;2023-04-25T07:01:06;7.90;99.90
9385;DHT22;4732;49.340;10.886;2023-04-25T07:03:32;7.90;99.90
9385;DHT22;4732;49.340;10.886;2023-04-25T07:05:57;7.90;99.90
9385;DHT22;4732;49.340;10.886;2023-04-25T07:08:23;8.00;99.90
9385;DHT22;4732;49.340;10.886;2023-04-25T07:10:48;7.90;99.90
9385;DHT22;4732;49.340;10.886;2023-04-25T07:13:14;7.90;99.90
9385;DHT22;4732;49.340;10.886;2023-04-25T07:15:39;7.90;99.90
9385;DHT22;4732;49.340;10.886;2023-04-25T07:18:05;7.90;99.90
9385;DHT22;4732;49.340;10.886;2023-04-25T07:20:30;7.80;99.90
9385;DHT22;4732;49.340;10.886;2023-04-25T07:22:57;7.80;99.90
9385;DHT22;4732;49.340;10.886;2023-04-25T07:25:22;7.80;99.90
9385;DHT22;4732;49.340;10.886;2023-04-25T07:27:48;7.70;99.90
9385;DHT22;4732;49.340;10.886;2023-04-25T07:30:14;7.60;99.90
9385;DHT22;4732;49.340;10.886;2023-04-25T07:32:39;7.50;99.90
9385;DHT22;4732;49.340;10.886;2023-04-25T07:35:05;7.40;99.90
9385;DHT22;4732;49.340;10.886;2023-04-25T07:37:33;7.40;99.90
9385;DHT22;4732;49.340;10.886;2023-04-25T07:39:58;7.40;99.90
9385;DHT22;4732;49.340;10.886;2023-04-25T07:42:24;7.40;99.90
9385;DHT22;4732;49.340;10.886;2023-04-25T07:44:49;7.40;99.90
9385;DHT22;4732;49.340;10.886;2023-04-25T07:47:16;7.50;99.90
9385;DHT22;4732;49.340;10.886;2023-04-25T07:49:44;7.40;99.90
9385;DHT22;4732;49.340;10.886;2023-04-25T07:52:10;7.30;99.90
9385;DHT22;4732;49.340;10.886;2023-04-25T07:54:36;7.40;99.90
9385;DHT22;4732;49.340;10.886;2023-04-25T07:57:02;7.50;99.90
9385;DHT22;4732;49.340;10.886;2023-04-25T07:59:27;7.40;99.90
9385;DHT22;4732;49.340;10.886;2023-04-25T08:01:53;7.40;99.90
9385;DHT22;4732;49.340;10.886;2023-04-25T08:04:19;7.50;99.90
9385;DHT22;4732;49.340;10.886;2023-04-25T08:06:44;7.50;99.90
9385;DHT22;4732;49.340;10.886;2023-04-25T08:09:10;7.50;99.90
9385;DHT22;4732;49.340;10.886;2023-04-25T08:11:36;7.60;99.90
9385;DHT22;4732;49.340;10.886;2023-04-25T08:14:02;7.50;99.90
9385;DHT22;4732;49.340;10.886;2023-04-25T08:16:27;7.50;99.90
9385;DHT22;4732;49.340;10.886;2023-04-25T08:18:53;7.70;99.90
9385;DHT22;4732;49.340;10.886;2023-04-25T08:21:19;7.70;99.90
9385;DHT22;4732;49.340;10.886;2023-04-25T08:23:45;7.80;99.90
9385;DHT22;4732;49.340;10.886;2023-04-25T08:26:11;7.90;99.90
9385;DHT22;4732;49.340;10.886;2023-04-25T08:28:36;8.00;99.90
9385;DHT22;4732;49.340;10.886;2023-04-25T08:31:02;8.10;99.90
9385;DHT22;4732;49.340;10.886;2023-04-25T08:33:27;8.10;99.90
9385;DHT22;4732;49.340;10.886;2023-04-25T08:35:54;8.70;99.90
9385;DHT22;4732;49.340;10.886;2023-04-25T08:38:20;8.30;99.90
9385;DHT22;4732;49.340;10.886;2023-04-25T08:40:49;8.40;99.90
9385;DHT22;4732;49.340;10.886;2023-04-25T08:43:18;8.50;99.90
9385;DHT22;4732;49.340;10.886;2023-04-25T08:45:44;8.60;99.90
9385;DHT22;4732;49.340;10.886;2023-04-25T08:48:14;8.70;99.90
9385;DHT22;4732;49.340;10.886;2023-04-25T08:50:52;8.80;99.90
9385;DHT22;4732;49.340;10.886;2023-04-25T08:53:26;9.00;99.90
9385;DHT22;4732;49.340;10.886;2023-04-25T08:55:54;9.30;99.90
9385;DHT22;4732;49.340;10.886;2023-04-25T08:58:19;9.60;99.90
9385;DHT22;4732;49.340;10.886;2023-04-25T09:03:15;10.00;99.90
9385;DHT22;4732;49.340;10.886;2023-04-25T09:05:41;10.20;99.90
9385;DHT22;4732;49.340;10.886;2023-04-25T09:08:07;10.20;99.90
9385;DHT22;4732;49.340;10.886;2023-04-25T09:10:33;10.30;99.90
9385;DHT22;4732;49.340;10.886;2023-04-25T09:13:06;10.40;99.90
9385;DHT22;4732;49.340;10.886;2023-04-25T09:15:53;10.40;99.90
9385;DHT22;4732;49.340;10.886;2023-04-25T09:18:30;10.20;99.90
9385;DHT22;4732;49.340;10.886;2023-04-25T09:20:58;10.10;99.90
9385;DHT22;4732;49.340;10.886;2023-04-25T09:23:29;9.90;99.90
9385;DHT22;4732;49.340;10.886;2023-04-25T09:25:55;9.80;99.90
9385;DHT22;4732;49.340;10.886;2023-04-25T09:28:25;9.70;99.90
9385;DHT22;4732;49.340;10.886;2023-04-25T09:30:57;9.70;99.90
9385;DHT22;4732;49.340;10.886;2023-04-25T09:33:31;9.90;99.90
9385;DHT22;4732;49.340;10.886;2023-04-25T09:36:05;10.50;99.90
9385;DHT22;4732;49.340;10.886;2023-04-25T09:38:39;10.90;99.90
9385;DHT22;4732;49.340;10.886;2023-04-25T09:41:05;10.80;99.90
9385;DHT22;4732;49.340;10.886;2023-04-25T09:43:31;10.70;99.90
9385;DHT22;4732;49.340;10.886;2023-04-25T09:45:56;10.60;99.90
9385;DHT22;4732;49.340;10.886;2023-04-25T09:48:25;10.50;99.90
9385;DHT22;4732;49.340;10.886;2023-04-25T09:51:10;10.60;99.90
9385;DHT22;4732;49.340;10.886;2023-04-25T09:53:44;10.60;99.90
9385;DHT22;4732;49.340;10.886;2023-04-25T09:56:12;10.50;99.90
9385;DHT22;4732;49.340;10.886;2023-04-25T09:58:39;10.60;99.90
9385;DHT22;4732;49.340;10.886;2023-04-25T10:01:07;10.70;99.90
9385;DHT22;4732;49.340;10.886;2023-04-25T10:06:02;11.40;99.90
9385;DHT22;4732;49.340;10.886;2023-04-25T10:08:31;11.80;99.90
9385;DHT22;4732;49.340;10.886;2023-04-25T10:11:01;11.80;99.90
9385;DHT22;4732;49.340;10.886;2023-04-25T10:13:29;11.90;99.90
9385;DHT22;4732;49.340;10.886;2023-04-25T10:15:56;11.80;99.90
9385;DHT22;4732;49.340;10.886;2023-04-25T10:18:24;11.70;99.90
9385;DHT22;4732;49.340;10.886;2023-04-25T10:20:49;11.70;99.90
9385;DHT22;4732;49.340;10.886;2023-04-25T10:23:15;11.70;99.90
9385;DHT22;4732;49.340;10.886;2023-04-25T10:25:42;11.80;99.90
9385;DHT22;4732;49.340;10.886;2023-04-25T10:28:08;12.10;99.90
9385;DHT22;4732;49.340;10.886;2023-04-25T10:30:34;12.40;99.90
9385;DHT22;4732;49.340;10.886;2023-04-25T10:32:59;12.50;99.90
9385;DHT22;4732;49.340;10.886;2023-04-25T10:35:29;12.70;99.90
9385;DHT22;4732;49.340;10.886;2023-04-25T10:38:09;12.50;99.90
9385;DHT22;4732;49.340;10.886;2023-04-25T10:40:35;12.30;99.90
9385;DHT22;4732;49.340;10.886;2023-04-25T10:45:56;11.70;99.90
9385;DHT22;4732;49.340;10.886;2023-04-25T10:48:25;11.60;99.90
9385;DHT22;4732;49.340;10.886;2023-04-25T10:51:07;11.40;99.90
9385;DHT22;4732;49.340;10.886;2023-04-25T10:53:33;11.20;99.90
9385;DHT22;4732;49.340;10.886;2023-04-25T10:55:59;11.20;99.90
9385;DHT22;4732;49.340;10.886;2023-04-25T10:58:25;11.10;99.90
9385;DHT22;4732;49.340;10.886;2023-04-25T11:00:51;11.00;99.90
9385;DHT22;4732;49.340;10.886;2023-04-25T11:03:17;11.30;99.90
9385;DHT22;4732;49.340;10.886;2023-04-25T11:05:46;11.70;99.90
9385;DHT22;4732;49.340;10.886;2023-04-25T11:08:18;11.80;99.90
9385;DHT22;4732;49.340;10.886;2023-04-25T11:10:49;11.60;99.90
9385;DHT22;4732;49.340;10.886;2023-04-25T11:13:15;11.50;99.90
9385;DHT22;4732;49.340;10.886;2023-04-25T11:15:40;11.50;99.90
9385;DHT22;4732;49.340;10.886;2023-04-25T11:18:06;11.30;99.90
9385;DHT22;4732;49.340;10.886;2023-04-25T11:20:32;11.10;99.90
9385;DHT22;4732;49.340;10.886;2023-04-25T11:22:58;11.20;99.90
9385;DHT22;4732;49.340;10.886;2023-04-25T11:25:27;11.10;99.90
9385;DHT22;4732;49.340;10.886;2023-04-25T11:27:57;10.90;99.90
9385;DHT22;4732;49.340;10.886;2023-04-25T11:30:26;10.80;99.90
9385;DHT22;4732;49.340;10.886;2023-04-25T11:32:52;10.70;99.90
9385;DHT22;4732;49.340;10.886;2023-04-25T11:35:19;10.50;99.90
9385;DHT22;4732;49.340;10.886;2023-04-25T11:37:45;10.60;99.90
9385;DHT22;4732;49.340;10.886;2023-04-25T11:40:11;10.70;99.90
9385;DHT22;4732;49.340;10.886;2023-04-25T11:42:44;10.70;99.90
9385;DHT22;4732;49.340;10.886;2023-04-25T11:45:10;10.80;99.90
9385;DHT22;4732;49.340;10.886;2023-04-25T11:47:36;10.80;99.90
9385;DHT22;4732;49.340;10.886;2023-04-25T11:50:04;10.90;99.90
9385;DHT22;4732;49.340;10.886;2023-04-25T11:52:43;10.90;99.90
9385;DHT22;4732;49.340;10.886;2023-04-25T11:55:15;10.90;99.90
9385;DHT22;4732;49.340;10.886;2023-04-25T11:57:42;11.10;99.90
9385;DHT22;4732;49.340;10.886;2023-04-25T12:00:12;11.20;99.90
9385;DHT22;4732;49.340;10.886;2023-04-25T12:02:58;11.50;99.90
9385;DHT22;4732;49.340;10.886;2023-04-25T12:05:26;11.60;99.90
9385;DHT22;4732;49.340;10.886;2023-04-25T12:07:52;11.60;99.90
9385;DHT22;4732;49.340;10.886;2023-04-25T12:10:18;11.60;99.90
9385;DHT22;4732;49.340;10.886;2023-04-25T12:12:45;11.60;99.90
9385;DHT22;4732;49.340;10.886;2023-04-25T12:15:23;11.60;99.90
9385;DHT22;4732;49.340;10.886;2023-04-25T12:17:53;11.60;99.90
9385;DHT22;4732;49.340;10.886;2023-04-25T12:20:21;11.50;99.90
9385;DHT22;4732;49.340;10.886;2023-04-25T12:22:49;11.60;99.90
9385;DHT22;4732;49.340;10.886;2023-04-25T12:25:43;11.70;99.90
9385;DHT22;4732;49.340;10.886;2023-04-25T12:31:05;11.80;99.90
9385;DHT22;4732;49.340;10.886;2023-04-25T12:33:32;11.80;99.90
9385;DHT22;4732;49.340;10.886;2023-04-25T12:35:58;11.70;99.90
9385;DHT22;4732;49.340;10.886;2023-04-25T12:38:29;11.60;99.90
9385;DHT22;4732;49.340;10.886;2023-04-25T12:40:56;11.40;99.90
9385;DHT22;4732;49.340;10.886;2023-04-25T12:43:22;11.30;99.90
9385;DHT22;4732;49.340;10.886;2023-04-25T12:45:53;11.30;99.90
9385;DHT22;4732;49.340;10.886;2023-04-25T12:48:19;11.10;99.90
9385;DHT22;4732;49.340;10.886;2023-04-25T12:50:45;11.00;99.90
9385;DHT22;4732;49.340;10.886;2023-04-25T12:53:13;11.00;99.90
9385;DHT22;4732;49.340;10.886;2023-04-25T12:55:38;11.10;99.90
9385;DHT22;4732;49.340;10.886;2023-04-25T12:58:04;11.10;99.90
9385;DHT22;4732;49.340;10.886;2023-04-25T13:00:30;11.30;99.90
9385;DHT22;4732;49.340;10.886;2023-04-25T13:02:56;11.30;99.90
9385;DHT22;4732;49.340;10.886;2023-04-25T13:05:21;11.20;99.90
9385;DHT22;4732;49.340;10.886;2023-04-25T13:07:47;11.30;99.90
9385;DHT22;4732;49.340;10.886;2023-04-25T13:10:12;11.20;99.90
9385;DHT22;4732;49.340;10.886;2023-04-25T13:12:38;11.20;99.90
9385;DHT22;4732;49.340;10.886;2023-04-25T13:15:04;11.10;99.90
9385;DHT22;4732;49.340;10.886;2023-04-25T13:17:29;11.20;99.90
9385;DHT22;4732;49.340;10.886;2023-04-25T13:19:55;11.10;99.90
9385;DHT22;4732;49.340;10.886;2023-04-25T13:22:21;11.10;99.90
9385;DHT22;4732;49.340;10.886;2023-04-25T13:24:46;11.10;99.90
9385;DHT22;4732;49.340;10.886;2023-04-25T13:27:12;11.10;99.90
9385;DHT22;4732;49.340;10.886;2023-04-25T13:29:38;10.90;99.90
9385;DHT22;4732;49.340;10.886;2023-04-25T13:32:06;10.60;99.90
9385;DHT22;4732;49.340;10.886;2023-04-25T13:34:31;10.50;99.90
9385;DHT22;4732;49.340;10.886;2023-04-25T13:36:57;10.30;99.90
9385;DHT22;4732;49.340;10.886;2023-04-25T13:39:22;10.40;99.90
9385;DHT22;4732;49.340;10.886;2023-04-25T13:41:48;10.40;99.90
9385;DHT22;4732;49.340;10.886;2023-04-25T13:44:13;10.40;99.90
9385;DHT22;4732;49.340;10.886;2023-04-25T13:46:39;10.40;99.90
9385;DHT22;4732;49.340;10.886;2023-04-25T13:49:04;10.50;99.90
9385;DHT22;4732;49.340;10.886;2023-04-25T13:51:30;10.50;99.90
9385;DHT22;4732;49.340;10.886;2023-04-25T13:53:56;10.60;99.90
9385;DHT22;4732;49.340;10.886;2023-04-25T13:56:22;10.60;99.90
9385;DHT22;4732;49.340;10.886;2023-04-25T13:58:51;10.70;99.90
9385;DHT22;4732;49.340;10.886;2023-04-25T14:01:17;10.70;99.90
9385;DHT22;4732;49.340;10.886;2023-04-25T14:03:44;10.60;99.90
9385;DHT22;4732;49.340;10.886;2023-04-25T14:06:09;10.60;99.90
9385;DHT22;4732;49.340;10.886;2023-04-25T14:08:36;10.50;99.90
9385;DHT22;4732;49.340;10.886;2023-04-25T14:11:02;10.50;99.90
9385;DHT22;4732;49.340;10.886;2023-04-25T14:13:28;10.50;99.90
9385;DHT22;4732;49.340;10.886;2023-04-25T14:15:53;10.60;99.90
9385;DHT22;4732;49.340;10.886;2023-04-25T14:18:20;10.60;99.90
9385;DHT22;4732;49.340;10.886;2023-04-25T14:20:45;10.50;99.90
9385;DHT22;4732;49.340;10.886;2023-04-25T14:23:11;10.60;99.90
9385;DHT22;4732;49.340;10.886;2023-04-25T14:25:37;10.60;99.90
9385;DHT22;4732;49.340;10.886;2023-04-25T14:28:03;10.70;99.90
9385;DHT22;4732;49.340;10.886;2023-04-25T14:30:29;10.70;99.90
9385;DHT22;4732;49.340;10.886;2023-04-25T14:32:54;10.70;99.90
9385;DHT22;4732;49.340;10.886;2023-04-25T14:35:20;10.60;99.90
9385;DHT22;4732;49.340;10.886;2023-04-25T14:37:46;10.80;99.90
9385;DHT22;4732;49.340;10.886;2023-04-25T14:40:12;10.40;99.90
9385;DHT22;4732;49.340;10.886;2023-04-25T14:42:41;10.60;99.90
9385;DHT22;4732;49.340;10.886;2023-04-25T14:45:07;10.50;99.90
9385;DHT22;4732;49.340;10.886;2023-04-25T14:47:34;10.40;99.90
9385;DHT22;4732;49.340;10.886;2023-04-25T14:50:00;10.40;99.90
9385;DHT22;4732;49.340;10.886;2023-04-25T14:52:26;10.40;99.90
9385;DHT22;4732;49.340;10.886;2023-04-25T14:54:52;10.30;99.90
9385;DHT22;4732;49.340;10.886;2023-04-25T14:57:18;10.30;99.90
9385;DHT22;4732;49.340;10.886;2023-04-25T14:59:43;10.40;99.90
9385;DHT22;4732;49.340;10.886;2023-04-25T15:02:09;10.30;99.90
9385;DHT22;4732;49.340;10.886;2023-04-25T15:04:35;10.30;99.90
9385;DHT22;4732;49.340;10.886;2023-04-25T15:07:01;10.40;99.90
9385;DHT22;4732;49.340;10.886;2023-04-25T15:09:26;10.40;99.90
9385;DHT22;4732;49.340;10.886;2023-04-25T15:11:52;10.60;99.90
9385;DHT22;4732;49.340;10.886;2023-04-25T15:14:18;10.80;99.90
9385;DHT22;4732;49.340;10.886;2023-04-25T15:16:43;10.90;99.90
9385;DHT22;4732;49.340;10.886;2023-04-25T15:19:09;11.00;99.90
9385;DHT22;4732;49.340;10.886;2023-04-25T15:21:35;11.00;99.90
9385;DHT22;4732;49.340;10.886;2023-04-25T15:24:00;10.90;99.90
9385;DHT22;4732;49.340;10.886;2023-04-25T15:26:27;10.80;99.90
9385;DHT22;4732;49.340;10.886;2023-04-25T15:28:52;10.90;99.90
9385;DHT22;4732;49.340;10.886;2023-04-25T15:31:18;11.20;99.90
9385;DHT22;4732;49.340;10.886;2023-04-25T15:33:43;11.50;99.90
9385;DHT22;4732;49.340;10.886;2023-04-25T15:36:09;11.20;99.90
9385;DHT22;4732;49.340;10.886;2023-04-25T15:38:35;11.00;99.90
9385;DHT22;4732;49.340;10.886;2023-04-25T15:41:01;11.00;99.90
9385;DHT22;4732;49.340;10.886;2023-04-25T15:43:27;10.80;99.90
9385;DHT22;4732;49.340;10.886;2023-04-25T15:45:53;10.70;99.90
9385;DHT22;4732;49.340;10.886;2023-04-25T15:48:18;11.00;99.90
9385;DHT22;4732;49.340;10.886;2023-04-25T15:50:44;11.20;99.90
9385;DHT22;4732;49.340;10.886;2023-04-25T15:53:10;11.60;99.90
9385;DHT22;4732;49.340;10.886;2023-04-25T15:55:35;11.50;99.90
9385;DHT22;4732;49.340;10.886;2023-04-25T15:58:01;11.60;99.90
9385;DHT22;4732;49.340;10.886;2023-04-25T16:00:27;11.90;99.90
9385;DHT22;4732;49.340;10.886;2023-04-25T16:02:53;11.90;99.90
9385;DHT22;4732;49.340;10.886;2023-04-25T16:05:18;11.70;99.90
9385;DHT22;4732;49.340;10.886;2023-04-25T16:07:45;11.60;99.90
9385;DHT22;4732;49.340;10.886;2023-04-25T16:10:11;11.10;99.90
9385;DHT22;4732;49.340;10.886;2023-04-25T16:12:40;10.90;99.90
9385;DHT22;4732;49.340;10.886;2023-04-25T16:15:06;10.70;99.90
9385;DHT22;4732;49.340;10.886;2023-04-25T16:17:32;10.60;99.90
9385;DHT22;4732;49.340;10.886;2023-04-25T16:19:58;10.50;99.90
9385;DHT22;4732;49.340;10.886;2023-04-25T16:22:26;10.40;99.90
9385;DHT22;4732;49.340;10.886;2023-04-25T16:24:51;10.40;99.90
9385;DHT22;4732;49.340;10.886;2023-04-25T16:27:17;10.30;99.90
9385;DHT22;4732;49.340;10.886;2023-04-25T16:29:42;10.30;99.90
9385;DHT22;4732;49.340;10.886;2023-04-25T16:32:08;10.30;99.90
9385;DHT22;4732;49.340;10.886;2023-04-25T16:34:33;10.10;99.90
9385;DHT22;4732;49.340;10.886;2023-04-25T16:36:59;10.10;99.90
9385;DHT22;4732;49.340;10.886;2023-04-25T16:39:25;10.00;99.90
9385;DHT22;4732;49.340;10.886;2023-04-25T16:41:51;10.00;99.90
9385;DHT22;4732;49.340;10.886;2023-04-25T16:44:17;10.00;99.90
9385;DHT22;4732;49.340;10.886;2023-04-25T16:46:42;10.00;99.90
9385;DHT22;4732;49.340;10.886;2023-04-25T16:49:09;10.10;99.90
9385;DHT22;4732;49.340;10.886;2023-04-25T16:51:34;10.10;99.90
9385;DHT22;4732;49.340;10.886;2023-04-25T16:54:00;10.10;99.90
9385;DHT22;4732;49.340;10.886;2023-04-25T16:56:25;10.00;99.90
9385;DHT22;4732;49.340;10.886;2023-04-25T16:58:51;10.00;99.90
9385;DHT22;4732;49.340;10.886;2023-04-25T17:01:17;9.90;99.90
9385;DHT22;4732;49.340;10.886;2023-04-25T17:03:45;9.70;99.90
9385;DHT22;4732;49.340;10.886;2023-04-25T17:06:11;9.60;99.90
9385;DHT22;4732;49.340;10.886;2023-04-25T17:08:37;9.60;99.90
9385;DHT22;4732;49.340;10.886;2023-04-25T17:11:02;9.50;99.90
9385;DHT22;4732;49.340;10.886;2023-04-25T17:13:28;9.40;99.90
9385;DHT22;4732;49.340;10.886;2023-04-25T17:15:54;9.40;99.90
9385;DHT22;4732;49.340;10.886;2023-04-25T17:18:21;9.30;99.90
9385;DHT22;4732;49.340;10.886;2023-04-25T17:20:47;9.30;99.90
9385;DHT22;4732;49.340;10.886;2023-04-25T17:23:12;9.30;99.90
9385;DHT22;4732;49.340;10.886;2023-04-25T17:25:38;9.30;99.90
9385;DHT22;4732;49.340;10.886;2023-04-25T17:28:03;9.30;99.90
9385;DHT22;4732;49.340;10.886;2023-04-25T17:30:29;9.30;99.90
9385;DHT22;4732;49.340;10.886;2023-04-25T17:32:55;9.30;99.90
9385;DHT22;4732;49.340;10.886;2023-04-25T17:35:20;9.20;99.90
9385;DHT22;4732;49.340;10.886;2023-04-25T17:37:47;9.20;99.90
9385;DHT22;4732;49.340;10.886;2023-04-25T17:40:13;9.10;99.90
9385;DHT22;4732;49.340;10.886;2023-04-25T17:42:39;9.10;99.90
9385;DHT22;4732;49.340;10.886;2023-04-25T17:45:05;9.10;99.90
9385;DHT22;4732;49.340;10.886;2023-04-25T17:47:32;9.10;99.90
9385;DHT22;4732;49.340;10.886;2023-04-25T17:49:57;9.00;99.90
9385;DHT22;4732;49.340;10.886;2023-04-25T17:52:23;9.00;99.90
9385;DHT22;4732;49.340;10.886;2023-04-25T17:54:50;9.00;99.90
9385;DHT22;4732;49.340;10.886;2023-04-25T17:57:16;8.90;99.90
9385;DHT22;4732;49.340;10.886;2023-04-25T17:59:42;8.80;99.90
9385;DHT22;4732;49.340;10.886;2023-04-25T18:02:08;8.80;99.90
9385;DHT22;4732;49.340;10.886;2023-04-25T18:04:33;8.90;99.90
9385;DHT22;4732;49.340;10.886;2023-04-25T18:07:02;8.90;99.90
9385;DHT22;4732;49.340;10.886;2023-04-25T18:09:27;8.80;99.90
9385;DHT22;4732;49.340;10.886;2023-04-25T18:11:53;8.80;99.90
9385;DHT22;4732;49.340;10.886;2023-04-25T18:14:20;8.80;99.90
9385;DHT22;4732;49.340;10.886;2023-04-25T18:16:47;8.80;99.90
9385;DHT22;4732;49.340;10.886;2023-04-25T18:19:13;8.70;99.90
9385;DHT22;4732;49.340;10.886;2023-04-25T18:21:50;8.50;99.90
9385;DHT22;4732;49.340;10.886;2023-04-25T18:24:16;8.70;99.90
9385;DHT22;4732;49.340;10.886;2023-04-25T18:26:46;8.70;99.90
9385;DHT22;4732;49.340;10.886;2023-04-25T18:29:16;8.70;99.90
9385;DHT22;4732;49.340;10.886;2023-04-25T18:31:43;8.90;99.90
9385;DHT22;4732;49.340;10.886;2023-04-25T18:34:09;8.40;99.90
9385;DHT22;4732;49.340;10.886;2023-04-25T18:36:36;8.40;99.90
9385;DHT22;4732;49.340;10.886;2023-04-25T18:39:02;8.40;99.90
9385;DHT22;4732;49.340;10.886;2023-04-25T18:41:31;8.30;99.90
9385;DHT22;4732;49.340;10.886;2023-04-25T18:43:57;8.30;99.90
9385;DHT22;4732;49.340;10.886;2023-04-25T18:46:27;8.20;99.90
9385;DHT22;4732;49.340;10.886;2023-04-25T18:48:53;8.10;99.90
9385;DHT22;4732;49.340;10.886;2023-04-25T18:51:21;8.00;99.90
9385;DHT22;4732;49.340;10.886;2023-04-25T18:53:48;7.90;99.90
9385;DHT22;4732;49.340;10.886;2023-04-25T18:56:13;7.90;99.90
9385;DHT22;4732;49.340;10.886;2023-04-25T18:58:39;7.90;99.90
9385;DHT22;4732;49.340;10.886;2023-04-25T19:01:06;7.90;99.90